Terminal Aerodrome Forecast
Issued by NWS

Home | Current Version | Previous Version | Text Only | Print | Product List | Glossary On
Versions: 1 2 3 4 5 6 7 8 9 10 11 12 13 14 15 16 17 18 19 20 21 22
000
FTUS42 KFFC 242320
TAFFTY
TAF
KFTY 242320Z 2500/2524 12004KT P6SM SCT050
     FM250800 12004KT P6SM BKN012
     FM251100 11004KT P6SM BKN007
     FM251500 12005KT P6SM OVC015
     FM251700 13005KT P6SM VCSH BKN025
     FM252000 13005KT P6SM VCSH BKN035 PROB30 2520/2524 VRB15G25KT
      3SM TSRA BR BKN025CB=

USA.gov is the U.S. government's official web portal to all federal, state and local government web resources and services.